ENML/MOL METAR and TAF weather

Enter ICAO airport designator
Station Type Date Time Source
ENML METAR 2018/10/21 06:20 UTC NOAA

ENML 210620Z AUTO 26012KT 9999NDV RA FEW034/// BKN045/// OVC056/// 10/08 Q1010


Station Type Date Time Source
ENML Decoded METAR 2018/10/21 06:20 UTC NOAA

Molde / Aro, Norway (ENML) 62-45N 007-16E 3M
Oct 21, 2018 - 02:20 AM EDT / 2018.10.21 0620 UTC
Wind: from the W (260 degrees) at 14 MPH (12 KT):0
Sky conditions: overcast
Weather: rain
Temperature: 50 F (10 C)
Dew Point: 46 F (8 C)
Relative Humidity: 87%
Pressure (altimeter): 29.83 in. Hg (1010 hPa)
ob: ENML 210620Z AUTO 26012KT 9999NDV RA FEW034/// BKN045/// OVC056/// 10/08 Q1010
cycle: 6

Station Type Date Time Source
ENML TAF UTC NOAA

Error!


Example: see airport list